sensor_id;sensor_type;location;lat;lon;timestamp;pressure;altitude;pressure_sealevel;temperature;humidity
7524;BME280;3803;51.666;7.630;2023-01-28T00:00:08;102246.72;;;4.45;51.65
7524;BME280;3803;51.666;7.630;2023-01-28T00:00:29;102253.94;;;4.49;51.87
7524;BME280;3803;51.666;7.630;2023-01-28T00:00:50;102251.38;;;4.49;51.54
7524;BME280;3803;51.666;7.630;2023-01-28T00:01:12;102255.75;;;4.50;51.74
7524;BME280;3803;51.666;7.630;2023-01-28T00:01:33;102243.34;;;4.46;51.94
7524;BME280;3803;51.666;7.630;2023-01-28T00:01:59;102251.25;;;4.47;51.84
7524;BME280;3803;51.666;7.630;2023-01-28T00:02:19;102248.78;;;4.49;51.70
7524;BME280;3803;51.666;7.630;2023-01-28T00:02:57;102241.56;;;4.45;51.92
7524;BME280;3803;51.666;7.630;2023-01-28T00:03:18;102259.34;;;4.52;51.82
7524;BME280;3803;51.666;7.630;2023-01-28T00:03:39;102239.53;;;4.41;52.01
7524;BME280;3803;51.666;7.630;2023-01-28T00:03:59;102245.72;;;4.43;51.99
7524;BME280;3803;51.666;7.630;2023-01-28T00:04:20;102249.44;;;4.46;51.57
7524;BME280;3803;51.666;7.630;2023-01-28T00:04:41;102245.50;;;4.40;51.89
7524;BME280;3803;51.666;7.630;2023-01-28T00:05:07;102248.06;;;4.40;51.94
7524;BME280;3803;51.666;7.630;2023-01-28T00:05:28;102234.09;;;4.37;52.06
7524;BME280;3803;51.666;7.630;2023-01-28T00:05:51;102248.31;;;4.43;51.82
7524;BME280;3803;51.666;7.630;2023-01-28T00:06:14;102260.69;;;4.47;51.48
7524;BME280;3803;51.666;7.630;2023-01-28T00:06:34;102253.47;;;4.43;51.46
7524;BME280;3803;51.666;7.630;2023-01-28T00:06:55;102245.50;;;4.40;51.90
7524;BME280;3803;51.666;7.630;2023-01-28T00:07:16;102249.41;;;4.34;51.81
7524;BME280;3803;51.666;7.630;2023-01-28T00:07:39;102246.69;;;4.33;51.99
7524;BME280;3803;51.666;7.630;2023-01-28T00:07:59;102251.19;;;4.35;52.01
7524;BME280;3803;51.666;7.630;2023-01-28T00:08:20;102242.44;;;4.33;52.09
7524;BME280;3803;51.666;7.630;2023-01-28T00:08:41;102258.88;;;4.46;51.84
7524;BME280;3803;51.666;7.630;2023-01-28T00:09:01;102248.06;;;4.40;51.54
7524;BME280;3803;51.666;7.630;2023-01-28T00:09:22;102241.19;;;4.40;51.88
7524;BME280;3803;51.666;7.630;2023-01-28T00:09:43;102249.88;;;4.41;51.98
7524;BME280;3803;51.666;7.630;2023-01-28T00:10:04;102255.41;;;4.45;51.73
7524;BME280;3803;51.666;7.630;2023-01-28T00:10:24;102251.66;;;4.42;51.89
7524;BME280;3803;51.666;7.630;2023-01-28T00:10:45;102263.63;;;4.51;51.82
7524;BME280;3803;51.666;7.630;2023-01-28T00:11:07;102254.25;;;4.42;51.83
7524;BME280;3803;51.666;7.630;2023-01-28T00:11:29;102240.06;;;4.36;51.82
7524;BME280;3803;51.666;7.630;2023-01-28T00:11:49;102246.50;;;4.42;52.07
7524;BME280;3803;51.666;7.630;2023-01-28T00:12:10;102242.00;;;4.39;52.02
7524;BME280;3803;51.666;7.630;2023-01-28T00:12:31;102244.72;;;4.41;51.53
7524;BME280;3803;51.666;7.630;2023-01-28T00:12:51;102246.50;;;4.42;51.92
7524;BME280;3803;51.666;7.630;2023-01-28T00:13:12;102250.88;;;4.43;51.73
7524;BME280;3803;51.666;7.630;2023-01-28T00:13:36;102248.19;;;4.41;51.82
7524;BME280;3803;51.666;7.630;2023-01-28T00:13:56;102248.06;;;4.40;52.01
7524;BME280;3803;51.666;7.630;2023-01-28T00:14:17;102248.72;;;4.37;51.61
7524;BME280;3803;51.666;7.630;2023-01-28T00:14:37;102244.44;;;4.37;51.82
7524;BME280;3803;51.666;7.630;2023-01-28T00:14:59;102237.47;;;4.36;51.91
7524;BME280;3803;51.666;7.630;2023-01-28T00:15:19;102249.53;;;4.36;51.87
7524;BME280;3803;51.666;7.630;2023-01-28T00:15:40;102248.06;;;4.40;51.63
7524;BME280;3803;51.666;7.630;2023-01-28T00:16:03;102244.22;;;4.34;51.91
7524;BME280;3803;51.666;7.630;2023-01-28T00:16:26;102249.63;;;4.37;52.06
7524;BME280;3803;51.666;7.630;2023-01-28T00:16:47;102235.81;;;4.37;51.77
7524;BME280;3803;51.666;7.630;2023-01-28T00:17:07;102258.34;;;4.50;51.66
7524;BME280;3803;51.666;7.630;2023-01-28T00:17:28;102232.44;;;4.38;51.95
7524;BME280;3803;51.666;7.630;2023-01-28T00:17:48;102247.38;;;4.42;52.05
7524;BME280;3803;51.666;7.630;2023-01-28T00:18:09;102242.13;;;4.41;51.87
7524;BME280;3803;51.666;7.630;2023-01-28T00:18:32;102239.75;;;4.44;51.73
7524;BME280;3803;51.666;7.630;2023-01-28T00:18:53;102246.72;;;4.45;52.00
7524;BME280;3803;51.666;7.630;2023-01-28T00:19:14;102239.75;;;4.44;51.38
7524;BME280;3803;51.666;7.630;2023-01-28T00:19:48;102251.09;;;4.46;51.80
7524;BME280;3803;51.666;7.630;2023-01-28T00:20:09;102243.34;;;4.46;51.69
7524;BME280;3803;51.666;7.630;2023-01-28T00:20:30;102251.91;;;4.45;51.60
7524;BME280;3803;51.666;7.630;2023-01-28T00:21:08;102233.31;;;4.38;51.99
7524;BME280;3803;51.666;7.630;2023-01-28T00:21:29;102238.63;;;4.40;51.71
7524;BME280;3803;51.666;7.630;2023-01-28T00:21:50;102260.69;;;4.47;51.67
7524;BME280;3803;51.666;7.630;2023-01-28T00:22:10;102245.59;;;4.41;51.33
7524;BME280;3803;51.666;7.630;2023-01-28T00:22:31;102243.25;;;4.44;51.89
7524;BME280;3803;51.666;7.630;2023-01-28T00:22:52;102240.31;;;4.40;51.63
7524;BME280;3803;51.666;7.630;2023-01-28T00:23:12;102255.41;;;4.45;52.04
7524;BME280;3803;51.666;7.630;2023-01-28T00:23:35;102253.34;;;4.41;51.49
7524;BME280;3803;51.666;7.630;2023-01-28T00:23:56;102249.63;;;4.37;51.90
7524;BME280;3803;51.666;7.630;2023-01-28T00:24:17;102255.28;;;4.44;51.87
7524;BME280;3803;51.666;7.630;2023-01-28T00:24:37;102257.06;;;4.45;51.48
7524;BME280;3803;51.666;7.630;2023-01-28T00:24:58;102250.66;;;4.40;51.69
7524;BME280;3803;51.666;7.630;2023-01-28T00:25:22;102256.06;;;4.43;51.46
7524;BME280;3803;51.666;7.630;2023-01-28T00:25:43;102257.06;;;4.45;51.94
7524;BME280;3803;51.666;7.630;2023-01-28T00:26:09;102251.09;;;4.46;51.81
7524;BME280;3803;51.666;7.630;2023-01-28T00:26:32;102248.31;;;4.43;51.94
7524;BME280;3803;51.666;7.630;2023-01-28T00:26:53;102253.69;;;4.46;51.81
7524;BME280;3803;51.666;7.630;2023-01-28T00:27:13;102251.66;;;4.42;51.69
7524;BME280;3803;51.666;7.630;2023-01-28T00:27:34;102250.88;;;4.43;51.62
7524;BME280;3803;51.666;7.630;2023-01-28T00:27:55;102249.09;;;4.42;52.04
7524;BME280;3803;51.666;7.630;2023-01-28T00:28:15;102250.34;;;4.47;51.78
7524;BME280;3803;51.666;7.630;2023-01-28T00:28:37;102265.53;;;4.54;51.82
7524;BME280;3803;51.666;7.630;2023-01-28T00:28:58;102249.44;;;4.46;51.68
7524;BME280;3803;51.666;7.630;2023-01-28T00:29:18;102244.94;;;4.44;51.62
7524;BME280;3803;51.666;7.630;2023-01-28T00:29:39;102245.94;;;4.46;51.95
7524;BME280;3803;51.666;7.630;2023-01-28T00:29:59;102247.50;;;4.44;51.61
7524;BME280;3803;51.666;7.630;2023-01-28T00:30:20;102262.94;;;4.54;51.69
7524;BME280;3803;51.666;7.630;2023-01-28T00:30:41;102242.34;;;4.44;51.82
7524;BME280;3803;51.666;7.630;2023-01-28T00:31:09;102257.53;;;4.51;51.70
7524;BME280;3803;51.666;7.630;2023-01-28T00:31:30;102267.09;;;4.52;51.93
7524;BME280;3803;51.666;7.630;2023-01-28T00:31:50;102267.22;;;4.54;51.82
7524;BME280;3803;51.666;7.630;2023-01-28T00:32:11;102260.69;;;4.47;51.90
7524;BME280;3803;51.666;7.630;2023-01-28T00:32:32;102252.69;;;4.44;51.78
7524;BME280;3803;51.666;7.630;2023-01-28T00:32:53;102261.72;;;4.49;51.89
7524;BME280;3803;51.666;7.630;2023-01-28T00:33:14;102251.91;;;4.45;51.89
7524;BME280;3803;51.666;7.630;2023-01-28T00:33:35;102259.91;;;4.48;51.89
7524;BME280;3803;51.666;7.630;2023-01-28T00:33:56;102256.28;;;4.46;51.94
7524;BME280;3803;51.666;7.630;2023-01-28T00:34:17;102251.91;;;4.45;51.91
7524;BME280;3803;51.666;7.630;2023-01-28T00:34:37;102259.13;;;4.49;51.73
7524;BME280;3803;51.666;7.630;2023-01-28T00:35:00;102254.84;;;4.49;52.01
7524;BME280;3803;51.666;7.630;2023-01-28T00:35:21;102247.38;;;4.42;52.10
7524;BME280;3803;51.666;7.630;2023-01-28T00:35:42;102256.28;;;4.46;51.69
7524;BME280;3803;51.666;7.630;2023-01-28T00:36:04;102250.34;;;4.47;51.88
7524;BME280;3803;51.666;7.630;2023-01-28T00:36:26;102242.59;;;4.47;52.00
7524;BME280;3803;51.666;7.630;2023-01-28T00:36:46;102252.16;;;4.48;51.86
7524;BME280;3803;51.666;7.630;2023-01-28T00:37:17;102245.84;;;4.44;51.85
7524;BME280;3803;51.666;7.630;2023-01-28T00:37:38;102244.94;;;4.44;51.74
7524;BME280;3803;51.666;7.630;2023-01-28T00:37:58;102254.75;;;4.48;51.99
7524;BME280;3803;51.666;7.630;2023-01-28T00:38:21;102248.53;;;4.46;52.15
7524;BME280;3803;51.666;7.630;2023-01-28T00:38:42;102259.59;;;4.55;51.81
7524;BME280;3803;51.666;7.630;2023-01-28T00:39:04;102253.03;;;4.48;51.72
7524;BME280;3803;51.666;7.630;2023-01-28T00:39:26;102244.41;;;4.48;52.12
7524;BME280;3803;51.666;7.630;2023-01-28T00:39:47;102259.13;;;4.49;51.93
7524;BME280;3803;51.666;7.630;2023-01-28T00:40:08;102268.00;;;4.52;51.91
7524;BME280;3803;51.666;7.630;2023-01-28T00:40:30;102254.59;;;4.46;51.92
7524;BME280;3803;51.666;7.630;2023-01-28T00:40:51;102249.44;;;4.46;51.59
7524;BME280;3803;51.666;7.630;2023-01-28T00:41:29;102248.53;;;4.46;52.21
7524;BME280;3803;51.666;7.630;2023-01-28T00:41:52;102241.34;;;4.42;52.40
7524;BME280;3803;51.666;7.630;2023-01-28T00:42:13;102243.91;;;4.42;52.13
7524;BME280;3803;51.666;7.630;2023-01-28T00:42:33;102249.44;;;4.46;52.30
7524;BME280;3803;51.666;7.630;2023-01-28T00:42:54;102248.53;;;4.46;52.01
7524;BME280;3803;51.666;7.630;2023-01-28T00:43:14;102248.53;;;4.46;51.82
7524;BME280;3803;51.666;7.630;2023-01-28T00:43:36;102253.16;;;4.50;52.09
7524;BME280;3803;51.666;7.630;2023-01-28T00:43:57;102256.28;;;4.46;51.94
7524;BME280;3803;51.666;7.630;2023-01-28T00:44:18;102243.91;;;4.42;51.99
7524;BME280;3803;51.666;7.630;2023-01-28T00:44:39;102247.38;;;4.42;52.35
7524;BME280;3803;51.666;7.630;2023-01-28T00:45:00;102254.38;;;4.43;52.40
7524;BME280;3803;51.666;7.630;2023-01-28T00:45:21;102262.50;;;4.48;52.14
7524;BME280;3803;51.666;7.630;2023-01-28T00:45:41;102247.50;;;4.44;52.30
7524;BME280;3803;51.666;7.630;2023-01-28T00:46:03;102262.50;;;4.48;52.16
7524;BME280;3803;51.666;7.630;2023-01-28T00:46:24;102252.69;;;4.44;52.46
7524;BME280;3803;51.666;7.630;2023-01-28T00:46:46;102252.47;;;4.41;52.24
7524;BME280;3803;51.666;7.630;2023-01-28T00:47:07;102248.97;;;4.40;52.24
7524;BME280;3803;51.666;7.630;2023-01-28T00:47:27;102249.31;;;4.45;52.49
7524;BME280;3803;51.666;7.630;2023-01-28T00:47:48;102249.22;;;4.43;52.16
7524;BME280;3803;51.666;7.630;2023-01-28T00:48:09;102263.16;;;4.45;52.38
7524;BME280;3803;51.666;7.630;2023-01-28T00:48:51;102265.19;;;4.49;52.27
7524;BME280;3803;51.666;7.630;2023-01-28T00:49:12;102250.75;;;4.41;52.42
7524;BME280;3803;51.666;7.630;2023-01-28T00:49:35;102255.69;;;4.38;52.35
7524;BME280;3803;51.666;7.630;2023-01-28T00:49:55;102247.81;;;4.36;52.34
7524;BME280;3803;51.666;7.630;2023-01-28T00:50:16;102261.22;;;4.43;52.16
7524;BME280;3803;51.666;7.630;2023-01-28T00:50:37;102260.22;;;4.41;52.53
7524;BME280;3803;51.666;7.630;2023-01-28T00:50:58;102256.38;;;4.35;52.62
7524;BME280;3803;51.666;7.630;2023-01-28T00:51:19;102249.53;;;4.36;52.48
7524;BME280;3803;51.666;7.630;2023-01-28T00:51:42;102250.53;;;4.38;52.38
7524;BME280;3803;51.666;7.630;2023-01-28T00:52:03;102253.47;;;4.43;52.29
7524;BME280;3803;51.666;7.630;2023-01-28T00:52:24;102242.56;;;4.35;52.21
7524;BME280;3803;51.666;7.630;2023-01-28T00:52:46;102251.41;;;4.38;52.17
7524;BME280;3803;51.666;7.630;2023-01-28T00:53:06;102252.09;;;4.36;52.29
7524;BME280;3803;51.666;7.630;2023-01-28T00:53:27;102254.00;;;4.38;52.54
7524;BME280;3803;51.666;7.630;2023-01-28T00:53:48;102256.38;;;4.35;52.55
7524;BME280;3803;51.666;7.630;2023-01-28T00:54:11;102247.59;;;4.33;52.20
7524;BME280;3803;51.666;7.630;2023-01-28T00:54:32;102263.31;;;4.36;52.19
7524;BME280;3803;51.666;7.630;2023-01-28T00:54:53;102256.13;;;4.32;52.55
7524;BME280;3803;51.666;7.630;2023-01-28T00:55:14;102259.72;;;4.34;52.37
7524;BME280;3803;51.666;7.630;2023-01-28T00:55:35;102251.97;;;4.34;52.03
7524;BME280;3803;51.666;7.630;2023-01-28T00:55:56;102254.34;;;4.31;52.22
7524;BME280;3803;51.666;7.630;2023-01-28T00:56:17;102258.16;;;4.36;52.11
7524;BME280;3803;51.666;7.630;2023-01-28T00:56:38;102262.31;;;4.34;52.44
7524;BME280;3803;51.666;7.630;2023-01-28T00:56:59;102259.97;;;4.37;52.37
7524;BME280;3803;51.666;7.630;2023-01-28T00:57:19;102254.78;;;4.37;52.04
7524;BME280;3803;51.666;7.630;2023-01-28T00:57:40;102254.56;;;4.34;52.17
7524;BME280;3803;51.666;7.630;2023-01-28T00:58:00;102254.56;;;4.34;52.40
7524;BME280;3803;51.666;7.630;2023-01-28T00:58:21;102253.91;;;4.37;52.38
7524;BME280;3803;51.666;7.630;2023-01-28T00:58:58;102265.38;;;4.41;52.47
7524;BME280;3803;51.666;7.630;2023-01-28T00:59:19;102269.78;;;4.42;52.15
7524;BME280;3803;51.666;7.630;2023-01-28T00:59:41;102258.28;;;4.38;52.35
7524;BME280;3803;51.666;7.630;2023-01-28T01:00:03;102263.31;;;4.36;52.50
7524;BME280;3803;51.666;7.630;2023-01-28T01:00:24;102262.53;;;4.37;52.38
7524;BME280;3803;51.666;7.630;2023-01-28T01:00:45;102272.59;;;4.45;52.53
7524;BME280;3803;51.666;7.630;2023-01-28T01:01:10;102259.16;;;4.38;52.50
7524;BME280;3803;51.666;7.630;2023-01-28T01:01:33;102260.88;;;4.38;52.41
7524;BME280;3803;51.666;7.630;2023-01-28T01:01:53;102259.44;;;4.42;52.20
7524;BME280;3803;51.666;7.630;2023-01-28T01:02:32;102253.91;;;4.37;52.36
7524;BME280;3803;51.666;7.630;2023-01-28T01:02:52;102255.84;;;4.40;52.46
7524;BME280;3803;51.666;7.630;2023-01-28T01:03:13;102251.53;;;4.40;52.55
7524;BME280;3803;51.666;7.630;2023-01-28T01:03:34;102248.59;;;4.35;52.21
7524;BME280;3803;51.666;7.630;2023-01-28T01:03:54;102262.00;;;4.42;52.20
7524;BME280;3803;51.666;7.630;2023-01-28T01:04:23;102253.34;;;4.41;52.38
7524;BME280;3803;51.666;7.630;2023-01-28T01:04:47;102256.59;;;4.38;52.54
7524;BME280;3803;51.666;7.630;2023-01-28T01:05:17;102254.13;;;4.40;52.30
7524;BME280;3803;51.666;7.630;2023-01-28T01:05:38;102254.25;;;4.42;52.24
7524;BME280;3803;51.666;7.630;2023-01-28T01:06:01;102255.94;;;4.41;52.16
7524;BME280;3803;51.666;7.630;2023-01-28T01:06:23;102253.13;;;4.38;52.54
7524;BME280;3803;51.666;7.630;2023-01-28T01:06:44;102250.53;;;4.38;52.31
7524;BME280;3803;51.666;7.630;2023-01-28T01:07:05;102263.94;;;4.44;52.49
7524;BME280;3803;51.666;7.630;2023-01-28T01:07:28;102249.63;;;4.37;52.25
7524;BME280;3803;51.666;7.630;2023-01-28T01:08:00;102255.03;;;4.41;52.59
7524;BME280;3803;51.666;7.630;2023-01-28T01:08:21;102246.03;;;4.35;52.38
7524;BME280;3803;51.666;7.630;2023-01-28T01:08:54;102261.75;;;4.38;52.33
7524;BME280;3803;51.666;7.630;2023-01-28T01:09:14;102246.81;;;4.34;52.60
7524;BME280;3803;51.666;7.630;2023-01-28T01:09:35;102251.41;;;4.38;52.51
7524;BME280;3803;51.666;7.630;2023-01-28T01:09:58;102252.34;;;4.39;52.75
7524;BME280;3803;51.666;7.630;2023-01-28T01:10:20;102250.53;;;4.38;52.50
7524;BME280;3803;51.666;7.630;2023-01-28T01:10:41;102247.59;;;4.33;52.58
7524;BME280;3803;51.666;7.630;2023-01-28T01:11:03;102253.25;;;4.40;52.67
7524;BME280;3803;51.666;7.630;2023-01-28T01:11:25;102266.41;;;4.43;52.38
7524;BME280;3803;51.666;7.630;2023-01-28T01:11:45;102251.19;;;4.35;52.56
7524;BME280;3803;51.666;7.630;2023-01-28T01:12:06;102260.44;;;4.44;52.49
7524;BME280;3803;51.666;7.630;2023-01-28T01:12:27;102250.19;;;4.33;52.75
7524;BME280;3803;51.666;7.630;2023-01-28T01:12:49;102249.41;;;4.34;52.66
7524;BME280;3803;51.666;7.630;2023-01-28T01:13:10;102247.59;;;4.33;52.76
7524;BME280;3803;51.666;7.630;2023-01-28T01:13:32;102248.59;;;4.35;52.42
7524;BME280;3803;51.666;7.630;2023-01-28T01:13:56;102246.16;;;4.37;52.70
7524;BME280;3803;51.666;7.630;2023-01-28T01:14:18;102256.59;;;4.38;52.82
7524;BME280;3803;51.666;7.630;2023-01-28T01:14:38;102255.69;;;4.38;52.42
7524;BME280;3803;51.666;7.630;2023-01-28T01:14:59;102246.03;;;4.35;52.46
7524;BME280;3803;51.666;7.630;2023-01-28T01:15:19;102256.59;;;4.38;52.46
7524;BME280;3803;51.666;7.630;2023-01-28T01:15:40;102246.81;;;4.34;52.59
7524;BME280;3803;51.666;7.630;2023-01-28T01:16:07;102254.91;;;4.39;52.60
7524;BME280;3803;51.666;7.630;2023-01-28T01:16:29;102262.00;;;4.42;52.58
7524;BME280;3803;51.666;7.630;2023-01-28T01:16:52;102258.63;;;4.43;52.70
7524;BME280;3803;51.666;7.630;2023-01-28T01:17:13;102249.63;;;4.37;52.40
7524;BME280;3803;51.666;7.630;2023-01-28T01:17:33;102249.41;;;4.34;52.52
7524;BME280;3803;51.666;7.630;2023-01-28T01:18:00;102248.72;;;4.37;52.62
7524;BME280;3803;51.666;7.630;2023-01-28T01:18:20;102255.69;;;4.38;52.38
7524;BME280;3803;51.666;7.630;2023-01-28T01:18:41;102257.63;;;4.41;52.57
7524;BME280;3803;51.666;7.630;2023-01-28T01:19:03;102256.59;;;4.38;52.67
7524;BME280;3803;51.666;7.630;2023-01-28T01:19:25;102258.16;;;4.36;52.61
7524;BME280;3803;51.666;7.630;2023-01-28T01:19:48;102256.59;;;4.38;52.22
7524;BME280;3803;51.666;7.630;2023-01-28T01:20:20;102259.97;;;4.37;52.60
7524;BME280;3803;51.666;7.630;2023-01-28T01:20:41;102246.69;;;4.33;52.58
7524;BME280;3803;51.666;7.630;2023-01-28T01:21:07;102263.31;;;4.36;52.79
7524;BME280;3803;51.666;7.630;2023-01-28T01:21:29;102249.16;;;4.31;52.70
7524;BME280;3803;51.666;7.630;2023-01-28T01:21:50;102263.59;;;4.40;52.63
7524;BME280;3803;51.666;7.630;2023-01-28T01:22:11;102250.31;;;4.35;52.95
7524;BME280;3803;51.666;7.630;2023-01-28T01:22:33;102258.28;;;4.38;52.67
7524;BME280;3803;51.666;7.630;2023-01-28T01:22:55;102261.66;;;4.37;52.73
7524;BME280;3803;51.666;7.630;2023-01-28T01:23:16;102252.63;;;4.32;52.55
7524;BME280;3803;51.666;7.630;2023-01-28T01:23:37;102259.72;;;4.34;52.63
7524;BME280;3803;51.666;7.630;2023-01-28T01:23:58;102256.13;;;4.32;52.92
7524;BME280;3803;51.666;7.630;2023-01-28T01:24:18;102255.00;;;4.29;52.77
7524;BME280;3803;51.666;7.630;2023-01-28T01:24:39;102258.81;;;4.34;52.71
7524;BME280;3803;51.666;7.630;2023-01-28T01:24:59;102257.94;;;4.33;52.60
7524;BME280;3803;51.666;7.630;2023-01-28T01:25:21;102262.44;;;4.36;52.52
7524;BME280;3803;51.666;7.630;2023-01-28T01:25:42;102266.69;;;4.35;52.33
7524;BME280;3803;51.666;7.630;2023-01-28T01:26:03;102265.91;;;4.36;52.12
7524;BME280;3803;51.666;7.630;2023-01-28T01:26:24;102251.84;;;4.33;52.52
7524;BME280;3803;51.666;7.630;2023-01-28T01:26:46;102250.31;;;4.35;52.55
7524;BME280;3803;51.666;7.630;2023-01-28T01:27:07;102257.03;;;4.33;52.18
7524;BME280;3803;51.666;7.630;2023-01-28T01:27:28;102257.16;;;4.34;52.46
7524;BME280;3803;51.666;7.630;2023-01-28T01:27:49;102261.66;;;4.37;52.33
7524;BME280;3803;51.666;7.630;2023-01-28T01:28:22;102248.25;;;4.31;52.37
7524;BME280;3803;51.666;7.630;2023-01-28T01:28:43;102256.22;;;4.34;52.47
7524;BME280;3803;51.666;7.630;2023-01-28T01:29:03;102259.72;;;4.34;52.55
7524;BME280;3803;51.666;7.630;2023-01-28T01:29:24;102258.81;;;4.34;52.71
7524;BME280;3803;51.666;7.630;2023-01-28T01:29:44;102253.00;;;4.36;52.45
7524;BME280;3803;51.666;7.630;2023-01-28T01:30:05;102264.25;;;4.37;52.37
7524;BME280;3803;51.666;7.630;2023-01-28T01:30:27;102267.19;;;4.42;52.79
7524;BME280;3803;51.666;7.630;2023-01-28T01:30:48;102254.00;;;4.38;52.33
7524;BME280;3803;51.666;7.630;2023-01-28T01:31:14;102267.19;;;4.42;52.55
7524;BME280;3803;51.666;7.630;2023-01-28T01:31:35;102267.19;;;4.42;52.46
7524;BME280;3803;51.666;7.630;2023-01-28T01:31:56;102278.88;;;4.48;52.67
7524;BME280;3803;51.666;7.630;2023-01-28T01:32:16;102258.16;;;4.36;52.43
7524;BME280;3803;51.666;7.630;2023-01-28T01:32:37;102255.34;;;4.33;52.70
7524;BME280;3803;51.666;7.630;2023-01-28T01:32:58;102252.75;;;4.33;52.72
7524;BME280;3803;51.666;7.630;2023-01-28T01:33:19;102257.94;;;4.33;52.63
7524;BME280;3803;51.666;7.630;2023-01-28T01:33:45;102257.03;;;4.33;52.50
7524;BME280;3803;51.666;7.630;2023-01-28T01:34:08;102259.88;;;4.36;52.63
7524;BME280;3803;51.666;7.630;2023-01-28T01:34:29;102263.47;;;4.38;52.73
7524;BME280;3803;51.666;7.630;2023-01-28T01:34:49;102256.38;;;4.35;52.62
7524;BME280;3803;51.666;7.630;2023-01-28T01:35:10;102261.66;;;4.37;52.73
7524;BME280;3803;51.666;7.630;2023-01-28T01:35:33;102258.16;;;4.36;52.59
7524;BME280;3803;51.666;7.630;2023-01-28T01:35:54;102260.75;;;4.36;52.43
7524;BME280;3803;51.666;7.630;2023-01-28T01:36:16;102259.72;;;4.34;52.44
7524;BME280;3803;51.666;7.630;2023-01-28T01:36:38;102260.75;;;4.36;52.69
7524;BME280;3803;51.666;7.630;2023-01-28T01:36:58;102260.53;;;4.33;52.48
7524;BME280;3803;51.666;7.630;2023-01-28T01:37:19;102255.34;;;4.33;52.64
7524;BME280;3803;51.666;7.630;2023-01-28T01:37:42;102269.41;;;4.37;52.65
7524;BME280;3803;51.666;7.630;2023-01-28T01:38:04;102266.94;;;4.38;52.46
7524;BME280;3803;51.666;7.630;2023-01-28T01:38:25;102281.13;;;4.44;52.50
7524;BME280;3803;51.666;7.630;2023-01-28T01:38:47;102255.22;;;4.32;52.58
7524;BME280;3803;51.666;7.630;2023-01-28T01:39:11;102265.03;;;4.36;52.42
7524;BME280;3803;51.666;7.630;2023-01-28T01:39:31;102267.72;;;4.37;52.75
7524;BME280;3803;51.666;7.630;2023-01-28T01:39:52;102265.91;;;4.36;52.47
7524;BME280;3803;51.666;7.630;2023-01-28T01:40:13;102260.16;;;4.29;52.53
7524;BME280;3803;51.666;7.630;2023-01-28T01:40:34;102271.66;;;4.32;52.57
7524;BME280;3803;51.666;7.630;2023-01-28T01:40:59;102266.47;;;4.32;52.74
7524;BME280;3803;51.666;7.630;2023-01-28T01:41:28;102264.41;;;4.28;52.52
7524;BME280;3803;51.666;7.630;2023-01-28T01:41:48;102260.81;;;4.26;52.51
7524;BME280;3803;51.666;7.630;2023-01-28T01:42:11;102270.84;;;4.33;52.78
7524;BME280;3803;51.666;7.630;2023-01-28T01:42:32;102279.84;;;4.38;52.41
7524;BME280;3803;51.666;7.630;2023-01-28T01:42:53;102253.19;;;4.28;52.65
7524;BME280;3803;51.666;7.630;2023-01-28T01:43:16;102278.63;;;4.33;52.39
7524;BME280;3803;51.666;7.630;2023-01-28T01:43:56;102279.41;;;4.32;52.38
7524;BME280;3803;51.666;7.630;2023-01-28T01:44:51;102282.22;;;4.35;52.52
7524;BME280;3803;51.666;7.630;2023-01-28T01:45:14;102283.00;;;4.34;52.61
7524;BME280;3803;51.666;7.630;2023-01-28T01:45:36;102277.59;;;4.31;52.42
7524;BME280;3803;51.666;7.630;2023-01-28T01:45:59;102271.16;;;4.26;52.60
7524;BME280;3803;51.666;7.630;2023-01-28T01:46:42;102292.56;;;4.35;52.54
7524;BME280;3803;51.666;7.630;2023-01-28T01:47:05;102273.19;;;4.30;52.56
7524;BME280;3803;51.666;7.630;2023-01-28T01:47:56;102271.38;;;4.29;52.36
7524;BME280;3803;51.666;7.630;2023-01-28T01:48:22;102281.97;;;4.32;52.19
7524;BME280;3803;51.666;7.630;2023-01-28T01:48:44;102275.78;;;4.30;52.62
7524;BME280;3803;51.666;7.630;2023-01-28T01:49:22;102282.22;;;4.35;52.47
7524;BME280;3803;51.666;7.630;2023-01-28T01:49:44;102274.09;;;4.31;52.30
7524;BME280;3803;51.666;7.630;2023-01-28T01:50:36;102271.66;;;4.32;52.57
7524;BME280;3803;51.666;7.630;2023-01-28T01:51:07;102274.31;;;4.34;52.18
7524;BME280;3803;51.666;7.630;2023-01-28T01:51:31;102270.84;;;4.33;52.44
7524;BME280;3803;51.666;7.630;2023-01-28T01:52:02;102264.41;;;4.28;52.38
7524;BME280;3803;51.666;7.630;2023-01-28T01:52:29;102280.63;;;4.37;52.49
7524;BME280;3803;51.666;7.630;2023-01-28T01:52:56;102275.03;;;4.31;52.44
7524;BME280;3803;51.666;7.630;2023-01-28T01:53:21;102281.56;;;4.38;52.49
7524;BME280;3803;51.666;7.630;2023-01-28T01:53:45;102264.69;;;4.31;52.55
7524;BME280;3803;51.666;7.630;2023-01-28T01:54:07;102275.13;;;4.33;52.34
7524;BME280;3803;51.666;7.630;2023-01-28T01:54:29;102274.09;;;4.31;52.60
7524;BME280;3803;51.666;7.630;2023-01-28T01:54:55;102263.53;;;4.28;52.58
7524;BME280;3803;51.666;7.630;2023-01-28T01:55:20;102281.31;;;4.35;52.63
7524;BME280;3803;51.666;7.630;2023-01-28T01:55:46;102268.00;;;4.30;52.54
7524;BME280;3803;51.666;7.630;2023-01-28T01:56:10;102259.03;;;4.25;52.34
7524;BME280;3803;51.666;7.630;2023-01-28T01:56:38;102268.00;;;4.30;52.21
7524;BME280;3803;51.666;7.630;2023-01-28T01:57:01;102280.41;;;4.34;52.43
7524;BME280;3803;51.666;7.630;2023-01-28T01:57:26;102279.50;;;4.34;52.66
7524;BME280;3803;51.666;7.630;2023-01-28T01:57:51;102272.53;;;4.33;52.50
7524;BME280;3803;51.666;7.630;2023-01-28T01:58:18;102274.44;;;4.35;52.73
7524;BME280;3803;51.666;7.630;2023-01-28T01:58:46;102268.50;;;4.36;52.35
7524;BME280;3803;51.666;7.630;2023-01-28T01:59:14;102270.06;;;4.34;52.51
7524;BME280;3803;51.666;7.630;2023-01-28T01:59:38;102265.69;;;4.33;52.04
7524;BME280;3803;51.666;7.630;2023-01-28T02:00:03;102267.34;;;4.33;52.51
7524;BME280;3803;51.666;7.630;2023-01-28T02:00:33;102269.94;;;4.33;52.25
7524;BME280;3803;51.666;7.630;2023-01-28T02:00:54;102272.78;;;4.36;52.61
7524;BME280;3803;51.666;7.630;2023-01-28T02:01:16;102272.88;;;4.37;52.30
7524;BME280;3803;51.666;7.630;2023-01-28T02:01:40;102275.72;;;4.41;52.46
7524;BME280;3803;51.666;7.630;2023-01-28T02:02:04;102273.44;;;4.33;52.45
7524;BME280;3803;51.666;7.630;2023-01-28T02:02:27;102272.53;;;4.33;52.28
7524;BME280;3803;51.666;7.630;2023-01-28T02:02:48;102268.28;;;4.33;52.95
7524;BME280;3803;51.666;7.630;2023-01-28T02:03:11;102278.75;;;4.35;52.45
7524;BME280;3803;51.666;7.630;2023-01-28T02:03:54;102268.28;;;4.33;52.45
7524;BME280;3803;51.666;7.630;2023-01-28T02:04:22;102277.69;;;4.33;52.70
7524;BME280;3803;51.666;7.630;2023-01-28T02:04:45;102272.53;;;4.33;52.42